createdAt,value
2023-09-20T00:01:35.577Z,97194.19
2023-09-20T00:04:21.998Z,97195.81
2023-09-20T00:07:08.556Z,97194.19
2023-09-20T00:09:54.175Z,97199.94
2023-09-20T00:12:41.737Z,97201.56
2023-09-20T00:15:27.142Z,97195.81
2023-09-20T00:18:12.815Z,97201.66
2023-09-20T00:21:02.600Z,97198.22
2023-09-20T00:23:48.210Z,97198.22
2023-09-20T00:26:35.129Z,97192.13
2023-09-20T00:29:20.575Z,97199.00
2023-09-20T00:32:06.435Z,97193.69
2023-09-20T00:34:52.420Z,97199.59
2023-09-20T00:37:48.288Z,97192.56
2023-09-20T00:40:36.360Z,97195.91
2023-09-20T00:43:25.750Z,97196.03
2023-09-20T00:46:12.775Z,97187.28
2023-09-20T00:48:58.928Z,97189.13
2023-09-20T00:51:48.459Z,97193.50
2023-09-20T00:54:34.600Z,97188.44
2023-09-20T00:57:20.664Z,97187.06
2023-09-20T01:00:21.101Z,97191.78
2023-09-20T01:03:07.111Z,97185.69
2023-09-20T01:05:53.025Z,97191.00
2023-09-20T01:08:38.738Z,97185.69
2023-09-20T01:11:24.696Z,97188.91
2023-09-20T01:14:10.426Z,97182.00
2023-09-20T01:16:55.815Z,97183.63
2023-09-20T01:19:41.579Z,97181.53
2023-09-20T01:22:28.217Z,97168.50
2023-09-20T01:25:23.848Z,97178.78
2023-09-20T01:28:11.400Z,97172.09
2023-09-20T01:30:59.490Z,97169.34
2023-09-20T01:33:44.836Z,97163.69
2023-09-20T01:36:30.594Z,97163.00
2023-09-20T01:39:17.820Z,97169.22
2023-09-20T01:42:05.562Z,97165.19
2023-09-20T01:44:51.254Z,97156.41
2023-09-20T01:47:39.303Z,97163.81
2023-09-20T01:50:25.811Z,97166.91
2023-09-20T01:53:12.911Z,97162.44
2023-09-20T01:55:59.100Z,97170.69
2023-09-20T01:58:45.792Z,97164.38
2023-09-20T02:01:31.308Z,97171.88
2023-09-20T02:04:16.659Z,97170.69
2023-09-20T02:07:01.994Z,97160.22
2023-09-20T02:09:47.467Z,97160.66
2023-09-20T02:12:35.555Z,97159.88
2023-09-20T02:15:31.428Z,97150.91
2023-09-20T02:18:17.362Z,97158.84
2023-09-20T02:21:03.620Z,97158.84
2023-09-20T02:23:49.233Z,97160.47
2023-09-20T02:26:34.964Z,97154.94
2023-09-20T02:29:24.203Z,97153.31
2023-09-20T02:32:09.660Z,97159.88
2023-09-20T02:34:55.112Z,97159.19
2023-09-20T02:37:44.887Z,97154.00
2023-09-20T02:40:30.400Z,97161.72
2023-09-20T02:43:17.800Z,97163.34
2023-09-20T02:46:06.899Z,97163.78
2023-09-20T02:48:53.833Z,97168.38
2023-09-20T02:51:39.623Z,97168.47
2023-09-20T02:54:25.508Z,97162.38
2023-09-20T02:57:12.378Z,97158.69
2023-09-20T02:59:59.544Z,97161.47
2023-09-20T03:02:48.339Z,97166.91
2023-09-20T03:05:35.888Z,97173.56
2023-09-20T03:08:26.019Z,97161.94
2023-09-20T03:11:21.200Z,97163.88
2023-09-20T03:14:09.346Z,97165.28
2023-09-20T03:16:55.333Z,97160.97
2023-09-20T03:19:41.210Z,97160.06
2023-09-20T03:22:26.868Z,97162.47
2023-09-20T03:25:15.252Z,97170.66
2023-09-20T03:28:01.424Z,97168.81
2023-09-20T03:30:46.935Z,97165.38
2023-09-20T03:33:33.067Z,97171.00
2023-09-20T03:36:19.353Z,97171.56
2023-09-20T03:39:07.648Z,97174.44
2023-09-20T03:41:53.383Z,97172.28
2023-09-20T03:44:40.379Z,97172.47
2023-09-20T03:47:29.292Z,97173.50
2023-09-20T03:50:19.340Z,97182.50
2023-09-20T03:53:06.024Z,97176.84
2023-09-20T03:55:51.976Z,97176.28
2023-09-20T03:58:39.900Z,97177.75
2023-09-20T04:01:25.681Z,97172.31
2023-09-20T04:04:11.078Z,97173.81
2023-09-20T04:06:56.418Z,97178.06
2023-09-20T04:09:42.669Z,97174.97
2023-09-20T04:12:28.649Z,97176.16
2023-09-20T04:15:15.708Z,97174.88
2023-09-20T04:18:09.795Z,97172.00
2023-09-20T04:20:55.465Z,97170.63
2023-09-20T04:23:41.020Z,97170.13
2023-09-20T04:26:27.019Z,97177.50
2023-09-20T04:29:13.115Z,97174.03
2023-09-20T04:31:59.394Z,97179.09
2023-09-20T04:34:46.420Z,97182.53
2023-09-20T04:37:32.503Z,97183.13
2023-09-20T04:40:18.104Z,97177.59
2023-09-20T04:43:04.274Z,97178.19
2023-09-20T04:45:50.433Z,97178.44
2023-09-20T04:48:35.883Z,97179.22
2023-09-20T04:51:22.348Z,97170.94
2023-09-20T04:54:09.177Z,97183.38
2023-09-20T04:56:54.822Z,97181.53
2023-09-20T04:59:41.189Z,97183.38
2023-09-20T05:02:26.954Z,97197.03
2023-09-20T05:05:13.609Z,97194.41
2023-09-20T05:07:59.262Z,97200.28
2023-09-20T05:10:46.047Z,97199.84
2023-09-20T05:13:31.981Z,97201.78
2023-09-20T05:16:17.846Z,97201.78
2023-09-20T05:19:04.410Z,97200.63
2023-09-20T05:21:50.373Z,97204.31
2023-09-20T05:24:36.151Z,97195.13
2023-09-20T05:27:22.546Z,97200.53
2023-09-20T05:30:09.614Z,97205.50
2023-09-20T05:32:56.074Z,97206.22
2023-09-20T05:35:41.892Z,97211.19
2023-09-20T05:38:27.939Z,97214.31
2023-09-20T05:41:14.092Z,97212.38
2023-09-20T05:43:59.770Z,97210.22
2023-09-20T05:46:45.386Z,97215.53
2023-09-20T05:49:30.976Z,97213.22
2023-09-20T05:52:16.853Z,97207.69
2023-09-20T05:55:03.799Z,97206.19
2023-09-20T05:57:49.425Z,97205.94
2023-09-20T06:00:36.435Z,97215.88
2023-09-20T06:03:22.821Z,97212.47
2023-09-20T06:06:09.376Z,97214.72
2023-09-20T06:08:54.705Z,97223.28
2023-09-20T06:11:40.150Z,97222.88
2023-09-20T06:14:26.011Z,97222.91
2023-09-20T06:17:11.792Z,97220.25
2023-09-20T06:20:00.157Z,97225.81
2023-09-20T06:22:48.045Z,97219.38
2023-09-20T06:25:35.411Z,97208.88
2023-09-20T06:28:20.942Z,97213.56
2023-09-20T06:31:06.741Z,97212.66
2023-09-20T06:33:52.613Z,97212.56
2023-09-20T06:36:38.412Z,97209.81
2023-09-20T06:39:27.065Z,97209.44
2023-09-20T06:42:12.467Z,97195.50
2023-09-20T06:44:58.270Z,97199.69
2023-09-20T06:47:44.901Z,97198.00
2023-09-20T06:50:32.041Z,97206.69
2023-09-20T06:53:18.690Z,97203.38
2023-09-20T06:56:04.739Z,97199.00
2023-09-20T06:58:51.325Z,97202.59
2023-09-20T07:01:36.943Z,97201.91
2023-09-20T07:04:23.112Z,97201.44
2023-09-20T07:07:09.100Z,97205.56
2023-09-20T07:09:54.856Z,97206.94
2023-09-20T07:12:42.091Z,97212.88
2023-09-20T07:15:29.305Z,97217.22
2023-09-20T07:18:15.326Z,97207.13
2023-09-20T07:21:01.392Z,97208.81
2023-09-20T07:23:47.017Z,97215.28
2023-09-20T07:26:34.061Z,97212.38
2023-09-20T07:29:19.907Z,97210.56
2023-09-20T07:32:05.647Z,97210.03
2023-09-20T07:34:59.048Z,97205.50
2023-09-20T07:37:45.268Z,97210.31
2023-09-20T07:40:32.339Z,97210.84
2023-09-20T07:43:28.615Z,97210.56
2023-09-20T07:46:16.751Z,97206.00
2023-09-20T07:49:10.422Z,97206.75
2023-09-20T07:51:55.801Z,97212.06
2023-09-20T07:54:41.335Z,97213.34
2023-09-20T07:57:29.453Z,97211.13
2023-09-20T08:00:16.679Z,97212.41
2023-09-20T08:03:02.642Z,97206.44
2023-09-20T08:05:50.382Z,97209.56
2023-09-20T08:08:37.975Z,97211.34
2023-09-20T08:11:24.016Z,97206.41
2023-09-20T08:14:09.986Z,97210.84
2023-09-20T08:17:14.129Z,97201.88
2023-09-20T08:19:59.602Z,97193.94
2023-09-20T08:23:05.063Z,97196.75
2023-09-20T08:26:11.327Z,97196.28
2023-09-20T08:29:15.592Z,97201.50
2023-09-20T08:32:19.519Z,97195.94
2023-09-20T08:35:24.146Z,97187.44
2023-09-20T08:38:28.056Z,97185.41
2023-09-20T08:41:32.167Z,97189.59
2023-09-20T08:44:36.201Z,97183.00
2023-09-20T08:47:41.317Z,97181.44
2023-09-20T08:50:47.267Z,97187.47
2023-09-20T08:53:51.708Z,97178.34
2023-09-20T08:56:59.318Z,97180.91
2023-09-20T08:59:52.295Z,97173.25
2023-09-20T09:02:39.145Z,97174.66
2023-09-20T09:05:28.916Z,97170.72
2023-09-20T09:08:14.729Z,97162.16
2023-09-20T09:11:00.323Z,97159.78
2023-09-20T09:13:45.807Z,97155.78
2023-09-20T09:16:34.378Z,97154.97
2023-09-20T09:19:19.957Z,97148.00
2023-09-20T09:22:07.170Z,97139.38
2023-09-20T09:24:54.927Z,97129.47
2023-09-20T09:27:41.865Z,97121.19
2023-09-20T09:30:27.673Z,97122.38
2023-09-20T09:33:15.261Z,97120.06
2023-09-20T09:36:00.858Z,97118.03
2023-09-20T09:38:46.343Z,97107.09
2023-09-20T09:41:42.820Z,97109.06
2023-09-20T09:44:28.340Z,97107.44
2023-09-20T09:47:14.936Z,97101.44
2023-09-20T09:50:02.623Z,97100.72
2023-09-20T09:52:52.034Z,97094.84
2023-09-20T09:55:40.475Z,97077.63
2023-09-20T09:58:25.978Z,97086.75
2023-09-20T10:01:12.467Z,97087.88
2023-09-20T10:04:01.638Z,97085.06
2023-09-20T10:07:17.612Z,97079.97
2023-09-20T10:10:14.688Z,97082.41
2023-09-20T10:13:04.274Z,97078.94
2023-09-20T10:15:52.243Z,97084.03
2023-09-20T10:19:01.625Z,97078.47
2023-09-20T10:22:09.361Z,97072.00
2023-09-20T10:24:59.684Z,97067.09
2023-09-20T10:27:45.274Z,97064.53
2023-09-20T10:30:35.503Z,97056.28
2023-09-20T10:33:42.452Z,97053.88
2023-09-20T10:36:32.247Z,97055.31
2023-09-20T10:39:20.861Z,97050.69
2023-09-20T10:42:14.040Z,97050.69
2023-09-20T10:45:06.523Z,97047.47
2023-09-20T10:47:54.000Z,97046.53
2023-09-20T10:50:59.217Z,97042.56
2023-09-20T10:53:45.557Z,97048.94
2023-09-20T10:56:52.857Z,97046.84
2023-09-20T10:59:40.206Z,97048.94
2023-09-20T11:02:26.898Z,97047.66
2023-09-20T11:05:12.794Z,97042.06
2023-09-20T11:08:04.539Z,97039.16
2023-09-20T11:10:50.336Z,97042.81
2023-09-20T11:13:35.794Z,97039.91
2023-09-20T11:16:23.134Z,97031.31
2023-09-20T11:19:10.517Z,97033.81
2023-09-20T11:21:58.294Z,97031.75
2023-09-20T11:24:44.221Z,97025.84
2023-09-20T11:27:29.658Z,97031.50
2023-09-20T11:30:15.273Z,97028.94
2023-09-20T11:33:01.777Z,97024.78
2023-09-20T11:35:50.662Z,97016.34
2023-09-20T11:38:37.335Z,97016.50
2023-09-20T11:41:25.248Z,97012.97
2023-09-20T11:44:10.347Z,97008.03
2023-09-20T11:46:59.551Z,96997.19
2023-09-20T11:49:45.187Z,96998.94
2023-09-20T11:52:30.912Z,97003.50
2023-09-20T11:55:17.755Z,96991.03
2023-09-20T11:58:03.275Z,96995.25
2023-09-20T12:00:48.847Z,96991.09
2023-09-20T12:03:35.256Z,96986.16
2023-09-20T12:06:20.878Z,96981.31
2023-09-20T12:09:06.506Z,96983.16
2023-09-20T12:11:52.694Z,96982.16
2023-09-20T12:14:41.374Z,96972.56
2023-09-20T12:17:28.138Z,96960.06
2023-09-20T12:20:14.079Z,96959.53
2023-09-20T12:23:03.482Z,96964.94
2023-09-20T12:25:49.050Z,96962.44
2023-09-20T12:28:37.436Z,96957.47
2023-09-20T12:31:25.017Z,96954.25
2023-09-20T12:34:11.298Z,96944.38
2023-09-20T12:36:58.167Z,96942.91
2023-09-20T12:39:43.697Z,96930.94
2023-09-20T12:42:28.962Z,96931.75
2023-09-20T12:45:15.975Z,96931.41
2023-09-20T12:48:01.662Z,96928.03
2023-09-20T12:50:47.894Z,96921.16
2023-09-20T12:53:33.847Z,96916.50
2023-09-20T12:56:19.739Z,96913.47
2023-09-20T12:59:05.320Z,96906.25
2023-09-20T13:01:50.909Z,96901.41
2023-09-20T13:04:36.368Z,96898.13
2023-09-20T13:07:22.961Z,96892.47
2023-09-20T13:10:15.050Z,96893.16
2023-09-20T13:13:09.491Z,96879.81
2023-09-20T13:15:55.226Z,96876.88
2023-09-20T13:18:40.979Z,96877.22
2023-09-20T13:21:26.494Z,96875.84
2023-09-20T13:24:12.676Z,96874.41
2023-09-20T13:26:58.455Z,96864.31
2023-09-20T13:29:44.138Z,96862.88
2023-09-20T13:32:29.482Z,96853.13
2023-09-20T13:35:18.169Z,96854.22
2023-09-20T13:38:06.096Z,96853.31
2023-09-20T13:40:52.455Z,96846.16
2023-09-20T13:43:38.259Z,96843.19
2023-09-20T13:46:26.700Z,96843.75
2023-09-20T13:49:14.067Z,96841.31
2023-09-20T13:51:59.290Z,96834.63
2023-09-20T13:54:47.805Z,96829.38
2023-09-20T13:57:37.982Z,96831.84
2023-09-20T14:00:29.011Z,96832.31
2023-09-20T14:03:16.494Z,96835.81
2023-09-20T14:06:03.192Z,96821.22
2023-09-20T14:08:49.705Z,96813.56
2023-09-20T14:11:36.561Z,96812.34
2023-09-20T14:14:28.087Z,96807.72
2023-09-20T14:17:15.896Z,96800.19
2023-09-20T14:20:10.445Z,96806.31
2023-09-20T14:22:56.881Z,96800.34
2023-09-20T14:25:42.216Z,96796.97
2023-09-20T14:28:27.680Z,96794.53
2023-09-20T14:31:18.148Z,96794.16
2023-09-20T14:34:03.700Z,96788.00
2023-09-20T14:36:49.126Z,96782.28
2023-09-20T14:39:35.195Z,96789.28
2023-09-20T14:42:20.541Z,96782.13
2023-09-20T14:45:06.541Z,96780.78
2023-09-20T14:47:53.399Z,96776.16
2023-09-20T14:50:39.020Z,96772.72
2023-09-20T14:53:26.407Z,96775.16
2023-09-20T14:56:12.725Z,96767.88
2023-09-20T14:58:58.430Z,96765.38
2023-09-20T15:01:44.107Z,96754.47
2023-09-20T15:04:32.591Z,96758.44
2023-09-20T15:07:17.934Z,96756.66
2023-09-20T15:10:04.535Z,96757.63
2023-09-20T15:12:58.571Z,96751.50
2023-09-20T15:15:46.520Z,96750.19
2023-09-20T15:18:32.302Z,96745.63
2023-09-20T15:21:18.076Z,96742.56
2023-09-20T15:24:03.593Z,96740.59
2023-09-20T15:26:48.946Z,96736.00
2023-09-20T15:29:34.590Z,96734.81
2023-09-20T15:32:20.983Z,96725.97
2023-09-20T15:35:10.448Z,96727.91
2023-09-20T15:37:57.013Z,96723.78
2023-09-20T15:40:44.517Z,96725.03
2023-09-20T15:43:37.487Z,96723.94
2023-09-20T15:46:23.016Z,96718.94
2023-09-20T15:49:08.334Z,96723.03
2023-09-20T15:51:54.018Z,96719.34
2023-09-20T15:54:40.234Z,96722.41
2023-09-20T15:57:27.770Z,96721.28
2023-09-20T16:00:17.554Z,96711.69
2023-09-20T16:03:04.367Z,96717.88
2023-09-20T16:05:51.869Z,96714.13
2023-09-20T16:08:37.647Z,96710.41
2023-09-20T16:11:23.349Z,96706.69
2023-09-20T16:14:09.078Z,96710.63
2023-09-20T16:16:55.703Z,96707.56
2023-09-20T16:19:43.114Z,96703.38
2023-09-20T16:22:28.796Z,96702.78
2023-09-20T16:25:15.151Z,96701.38
2023-09-20T16:28:00.451Z,96699.56
2023-09-20T16:30:47.148Z,96700.78
2023-09-20T16:33:32.774Z,96697.56
2023-09-20T16:36:18.358Z,96703.59
2023-09-20T16:39:04.039Z,96698.97
2023-09-20T16:41:50.305Z,96700.88
2023-09-20T16:44:36.161Z,96692.41
2023-09-20T16:47:21.637Z,96697.75
2023-09-20T16:50:07.595Z,96687.00
2023-09-20T16:52:53.313Z,96695.06
2023-09-20T16:55:38.866Z,96695.97
2023-09-20T16:58:24.353Z,96695.97
2023-09-20T17:01:14.411Z,96693.00
2023-09-20T17:04:00.908Z,96689.66
2023-09-20T17:06:47.202Z,96691.84
2023-09-20T17:09:33.399Z,96684.03
2023-09-20T17:12:18.750Z,96686.19
2023-09-20T17:15:05.280Z,96695.31
2023-09-20T17:17:51.090Z,96686.06
2023-09-20T17:20:36.913Z,96684.41
2023-09-20T17:23:22.846Z,96694.56
2023-09-20T17:26:10.720Z,96688.16
2023-09-20T17:28:56.641Z,96691.47
2023-09-20T17:31:42.064Z,96688.47
2023-09-20T17:34:27.619Z,96688.69
2023-09-20T17:37:13.359Z,96688.19
2023-09-20T17:39:59.115Z,96691.78
2023-09-20T17:42:44.866Z,96697.66
2023-09-20T17:45:30.413Z,96688.34
2023-09-20T17:48:16.213Z,96694.44
2023-09-20T17:51:01.837Z,96696.91
2023-09-20T17:53:47.751Z,96695.22
2023-09-20T17:56:33.484Z,96689.94
2023-09-20T17:59:21.058Z,96690.84
2023-09-20T18:02:07.696Z,96687.25
2023-09-20T18:04:53.262Z,96690.56
2023-09-20T18:07:38.722Z,96688.34
2023-09-20T18:10:25.395Z,96685.13
2023-09-20T18:13:11.149Z,96688.13
2023-09-20T18:15:56.610Z,96694.53
2023-09-20T18:18:42.970Z,96696.03
2023-09-20T18:21:31.139Z,96699.41
2023-09-20T18:24:16.570Z,96700.56
2023-09-20T18:27:01.922Z,96704.91
2023-09-20T18:29:47.357Z,96704.53
2023-09-20T18:32:32.999Z,96709.22
2023-09-20T18:35:18.619Z,96708.78
2023-09-20T18:38:05.048Z,96700.59
2023-09-20T18:40:51.248Z,96699.56
2023-09-20T18:43:37.071Z,96697.97
2023-09-20T18:46:26.809Z,96696.13
2023-09-20T18:49:14.917Z,96696.53
2023-09-20T18:52:01.848Z,96705.00
2023-09-20T18:54:48.576Z,96698.97
2023-09-20T18:57:34.348Z,96693.19
2023-09-20T19:00:24.339Z,96687.84
2023-09-20T19:03:17.142Z,96680.94
2023-09-20T19:06:03.023Z,96686.94
2023-09-20T19:08:54.322Z,96688.88
2023-09-20T19:11:40.714Z,96695.16
2023-09-20T19:14:27.165Z,96688.75
2023-09-20T19:17:14.179Z,96678.63
2023-09-20T19:20:01.487Z,96682.66
2023-09-20T19:22:47.443Z,96683.50
2023-09-20T19:25:33.937Z,96679.50
2023-09-20T19:28:20.688Z,96687.28
2023-09-20T19:31:07.171Z,96688.94
2023-09-20T19:33:53.541Z,96687.63
2023-09-20T19:36:41.270Z,96683.63
2023-09-20T19:39:26.838Z,96686.34
2023-09-20T19:42:13.232Z,96677.28
2023-09-20T19:44:58.799Z,96674.41
2023-09-20T19:47:45.715Z,96670.41
2023-09-20T19:50:34.926Z,96668.31
2023-09-20T19:53:20.835Z,96661.66
2023-09-20T19:56:07.593Z,96670.78
2023-09-20T19:58:53.293Z,96664.91
2023-09-20T20:01:40.483Z,96663.59
2023-09-20T20:04:27.164Z,96663.59
2023-09-20T20:07:26.854Z,96663.09
2023-09-20T20:10:13.181Z,96673.25
2023-09-20T20:12:59.261Z,96667.38
2023-09-20T20:15:44.976Z,96672.22
2023-09-20T20:18:30.993Z,96673.00
2023-09-20T20:21:18.532Z,96671.13
2023-09-20T20:24:05.197Z,96674.13
2023-09-20T20:26:51.110Z,96665.59
2023-09-20T20:29:36.544Z,96672.78
2023-09-20T20:32:22.068Z,96666.94
2023-09-20T20:35:09.862Z,96670.13
2023-09-20T20:37:56.575Z,96674.69
2023-09-20T20:40:43.760Z,96677.63
2023-09-20T20:43:31.176Z,96680.31
2023-09-20T20:46:17.599Z,96674.72
2023-09-20T20:49:03.739Z,96680.06
2023-09-20T20:51:49.212Z,96674.72
2023-09-20T20:54:34.481Z,96669.16
2023-09-20T20:57:20.095Z,96663.81
2023-09-20T21:00:13.917Z,96668.84
2023-09-20T21:03:11.466Z,96662.19
2023-09-20T21:05:57.175Z,96657.41
2023-09-20T21:08:48.446Z,96660.59
2023-09-20T21:11:34.659Z,96646.72
2023-09-20T21:14:20.632Z,96656.84
2023-09-20T21:17:06.189Z,96648.84
2023-09-20T21:19:53.989Z,96652.03
2023-09-20T21:22:39.525Z,96650.97
2023-09-20T21:25:27.400Z,96648.84
2023-09-20T21:28:12.928Z,96639.78
2023-09-20T21:30:58.527Z,96642.19
2023-09-20T21:33:45.073Z,96645.34
2023-09-20T21:36:31.096Z,96637.38
2023-09-20T21:39:16.883Z,96630.16
2023-09-20T21:42:02.190Z,96627.47
2023-09-20T21:44:47.628Z,96627.19
2023-09-20T21:47:33.322Z,96618.41
2023-09-20T21:50:20.745Z,96619.19
2023-09-20T21:53:06.359Z,96620.00
2023-09-20T21:55:52.073Z,96621.34
2023-09-20T21:58:37.585Z,96619.44
2023-09-20T22:01:23.175Z,96620.22
2023-09-20T22:04:08.631Z,96620.72
2023-09-20T22:06:54.103Z,96624.22
2023-09-20T22:09:40.454Z,96619.94
2023-09-20T22:12:29.475Z,96625.19
2023-09-20T22:15:19.801Z,96626.22
2023-09-20T22:18:19.171Z,96625.13
2023-09-20T22:21:09.300Z,96623.44
2023-09-20T22:23:55.105Z,96623.66
2023-09-20T22:26:41.228Z,96616.47
2023-09-20T22:29:26.721Z,96623.34
2023-09-20T22:32:12.140Z,96621.75
2023-09-20T22:34:58.317Z,96616.69
2023-09-20T22:37:53.524Z,96622.25
2023-09-20T22:40:39.730Z,96620.66
2023-09-20T22:43:26.075Z,96616.66
2023-09-20T22:46:11.959Z,96617.97
2023-09-20T22:48:58.418Z,96605.72
2023-09-20T22:51:45.585Z,96603.06
2023-09-20T22:54:30.881Z,96609.22
2023-09-20T22:57:23.769Z,96609.41
2023-09-20T23:00:22.857Z,96601.16
2023-09-20T23:03:10.948Z,96604.59
2023-09-20T23:05:56.724Z,96607.75
2023-09-20T23:08:42.683Z,96601.34
2023-09-20T23:11:28.646Z,96607.91
2023-09-20T23:14:15.731Z,96604.66
2023-09-20T23:17:16.332Z,96604.88
2023-09-20T23:20:20.848Z,96607.25
2023-09-20T23:23:07.854Z,96599.00
2023-09-20T23:25:54.908Z,96605.66
2023-09-20T23:28:40.646Z,96604.34
2023-09-20T23:31:28.738Z,96605.97
2023-09-20T23:34:18.633Z,96604.31
2023-09-20T23:37:13.646Z,96599.75
2023-09-20T23:40:00.770Z,96593.06
2023-09-20T23:42:48.094Z,96595.41
2023-09-20T23:45:34.195Z,96595.09
2023-09-20T23:48:19.890Z,96595.59
2023-09-20T23:51:09.305Z,96591.66
2023-09-20T23:53:54.930Z,96588.44
2023-09-20T23:56:42.833Z,96597.19
2023-09-20T23:59:28.505Z,96597.50
